sensor_id;sensor_type;location;lat;lon;timestamp;pressure;altitude;pressure_sealevel;temperature;humidity
7200;BME280;3641;49.082;8.200;2023-03-18T00:01:41;99880.38;;;9.23;75.04
7200;BME280;3641;49.082;8.200;2023-03-18T00:04:08;99879.09;;;9.19;74.79
7200;BME280;3641;49.082;8.200;2023-03-18T00:06:35;99879.66;;;9.15;75.25
7200;BME280;3641;49.082;8.200;2023-03-18T00:09:03;99883.59;;;9.12;75.17
7200;BME280;3641;49.082;8.200;2023-03-18T00:11:31;99878.03;;;9.20;74.65
7200;BME280;3641;49.082;8.200;2023-03-18T00:13:58;99885.47;;;9.12;75.09
7200;BME280;3641;49.082;8.200;2023-03-18T00:16:24;99883.75;;;9.11;75.17
7200;BME280;3641;49.082;8.200;2023-03-18T00:18:52;99888.38;;;9.10;75.29
7200;BME280;3641;49.082;8.200;2023-03-18T00:21:19;99884.44;;;9.13;74.64
7200;BME280;3641;49.082;8.200;2023-03-18T00:23:47;99892.13;;;9.09;75.32
7200;BME280;3641;49.082;8.200;2023-03-18T00:26:15;99895.31;;;8.98;76.15
7200;BME280;3641;49.082;8.200;2023-03-18T00:28:43;99896.09;;;9.06;75.13
7200;BME280;3641;49.082;8.200;2023-03-18T00:31:10;99904.25;;;9.06;75.01
7200;BME280;3641;49.082;8.200;2023-03-18T00:33:39;99903.28;;;8.99;75.12
7200;BME280;3641;49.082;8.200;2023-03-18T00:36:08;99902.63;;;8.97;74.98
7200;BME280;3641;49.082;8.200;2023-03-18T00:38:38;99908.53;;;9.01;74.99
7200;BME280;3641;49.082;8.200;2023-03-18T00:41:05;99911.81;;;8.96;75.47
7200;BME280;3641;49.082;8.200;2023-03-18T00:43:37;99909.00;;;8.75;76.78
7200;BME280;3641;49.082;8.200;2023-03-18T00:46:12;99909.66;;;8.91;74.33
7200;BME280;3641;49.082;8.200;2023-03-18T00:48:40;99912.53;;;8.75;73.87
7200;BME280;3641;49.082;8.200;2023-03-18T00:51:07;99907.84;;;8.84;74.27
7200;BME280;3641;49.082;8.200;2023-03-18T00:53:35;99909.47;;;8.93;74.20
7200;BME280;3641;49.082;8.200;2023-03-18T00:56:03;99918.78;;;8.99;73.57
7200;BME280;3641;49.082;8.200;2023-03-18T00:58:30;99919.53;;;8.93;73.51
7200;BME280;3641;49.082;8.200;2023-03-18T01:00:56;99922.53;;;8.98;73.98
7200;BME280;3641;49.082;8.200;2023-03-18T01:03:24;99917.63;;;8.93;73.35
7200;BME280;3641;49.082;8.200;2023-03-18T01:05:51;99923.38;;;8.98;73.14
7200;BME280;3641;49.082;8.200;2023-03-18T01:08:18;99923.59;;;8.97;72.30
7200;BME280;3641;49.082;8.200;2023-03-18T01:10:46;99920.47;;;9.00;73.01
7200;BME280;3641;49.082;8.200;2023-03-18T01:13:12;99915.69;;;9.02;73.17
7200;BME280;3641;49.082;8.200;2023-03-18T01:15:39;99908.91;;;8.98;73.61
7200;BME280;3641;49.082;8.200;2023-03-18T01:18:06;99913.72;;;8.96;73.17
7200;BME280;3641;49.082;8.200;2023-03-18T01:20:34;99904.13;;;9.00;72.93
7200;BME280;3641;49.082;8.200;2023-03-18T01:23:02;99898.50;;;9.01;72.76
7200;BME280;3641;49.082;8.200;2023-03-18T01:25:29;99895.13;;;8.99;73.03
7200;BME280;3641;49.082;8.200;2023-03-18T01:27:56;99897.84;;;8.99;72.26
7200;BME280;3641;49.082;8.200;2023-03-18T01:30:22;99903.09;;;9.01;72.29
7200;BME280;3641;49.082;8.200;2023-03-18T01:32:49;99901.22;;;9.01;72.33
7200;BME280;3641;49.082;8.200;2023-03-18T01:35:16;99903.84;;;8.95;73.11
7200;BME280;3641;49.082;8.200;2023-03-18T01:37:43;99897.28;;;8.89;70.85
7200;BME280;3641;49.082;8.200;2023-03-18T01:40:11;99899.72;;;8.99;71.81
7200;BME280;3641;49.082;8.200;2023-03-18T01:42:38;99903.47;;;8.98;72.44
7200;BME280;3641;49.082;8.200;2023-03-18T01:45:14;99899.72;;;8.99;71.91
7200;BME280;3641;49.082;8.200;2023-03-18T01:47:42;99900.09;;;8.96;72.50
7200;BME280;3641;49.082;8.200;2023-03-18T01:50:11;99896.22;;;8.90;72.74
7200;BME280;3641;49.082;8.200;2023-03-18T01:52:39;99894.84;;;8.94;71.98
7200;BME280;3641;49.082;8.200;2023-03-18T01:55:11;99897.09;;;8.90;72.50
7200;BME280;3641;49.082;8.200;2023-03-18T01:57:39;99898.41;;;8.95;72.21
7200;BME280;3641;49.082;8.200;2023-03-18T02:00:08;99906.09;;;8.91;72.53
7200;BME280;3641;49.082;8.200;2023-03-18T02:02:37;99902.72;;;8.89;71.57
7200;BME280;3641;49.082;8.200;2023-03-18T02:05:07;99905.34;;;8.82;70.45
7200;BME280;3641;49.082;8.200;2023-03-18T02:07:36;99898.66;;;8.85;71.64
7200;BME280;3641;49.082;8.200;2023-03-18T02:10:06;99899.13;;;8.88;71.17
7200;BME280;3641;49.082;8.200;2023-03-18T02:12:41;99899.13;;;8.88;71.32
7200;BME280;3641;49.082;8.200;2023-03-18T02:15:11;99898.47;;;8.86;71.89
7200;BME280;3641;49.082;8.200;2023-03-18T02:17:40;99902.53;;;8.90;72.06
7200;BME280;3641;49.082;8.200;2023-03-18T02:20:16;99898.94;;;8.90;71.01
7200;BME280;3641;49.082;8.200;2023-03-18T02:22:49;99899.69;;;8.84;68.57
7200;BME280;3641;49.082;8.200;2023-03-18T02:25:30;99904.94;;;8.85;67.34
7200;BME280;3641;49.082;8.200;2023-03-18T02:28:02;99900.66;;;8.91;67.81
7200;BME280;3641;49.082;8.200;2023-03-18T02:30:32;99907.53;;;9.02;66.86
7200;BME280;3641;49.082;8.200;2023-03-18T02:33:01;99902.09;;;9.02;66.25
7200;BME280;3641;49.082;8.200;2023-03-18T02:35:29;99906.47;;;9.03;67.91
7200;BME280;3641;49.082;8.200;2023-03-18T02:37:56;99905.53;;;9.11;64.37
7200;BME280;3641;49.082;8.200;2023-03-18T02:40:25;99909.78;;;9.28;63.20
7200;BME280;3641;49.082;8.200;2023-03-18T02:42:52;99901.69;;;9.35;62.68
7200;BME280;3641;49.082;8.200;2023-03-18T02:45:31;99900.94;;;9.41;62.73
7200;BME280;3641;49.082;8.200;2023-03-18T02:48:01;99897.50;;;9.32;62.79
7200;BME280;3641;49.082;8.200;2023-03-18T02:50:30;99904.78;;;9.32;64.47
7200;BME280;3641;49.082;8.200;2023-03-18T02:52:57;99904.53;;;9.26;63.69
7200;BME280;3641;49.082;8.200;2023-03-18T02:55:24;99906.78;;;9.38;62.70
7200;BME280;3641;49.082;8.200;2023-03-18T02:57:51;99902.56;;;9.35;64.93
7200;BME280;3641;49.082;8.200;2023-03-18T03:00:17;99906.31;;;9.34;63.91
7200;BME280;3641;49.082;8.200;2023-03-18T03:02:45;99908.84;;;9.36;64.40
7200;BME280;3641;49.082;8.200;2023-03-18T03:05:12;99907.34;;;9.33;64.07
7200;BME280;3641;49.082;8.200;2023-03-18T03:07:39;99917.03;;;9.36;64.11
7200;BME280;3641;49.082;8.200;2023-03-18T03:10:08;99919.56;;;9.37;65.08
7200;BME280;3641;49.082;8.200;2023-03-18T03:12:34;99917.03;;;9.36;62.75
7200;BME280;3641;49.082;8.200;2023-03-18T03:15:03;99921.06;;;9.40;66.96
7200;BME280;3641;49.082;8.200;2023-03-18T03:17:29;99920.38;;;9.38;66.64
7200;BME280;3641;49.082;8.200;2023-03-18T03:19:57;99912.41;;;9.36;66.10
7200;BME280;3641;49.082;8.200;2023-03-18T03:22:24;99922.56;;;9.42;64.78
7200;BME280;3641;49.082;8.200;2023-03-18T03:24:51;99923.97;;;9.38;63.79
7200;BME280;3641;49.082;8.200;2023-03-18T03:27:18;99919.19;;;9.40;66.89
7200;BME280;3641;49.082;8.200;2023-03-18T03:29:44;99920.88;;;9.41;67.77
7200;BME280;3641;49.082;8.200;2023-03-18T03:32:11;99917.66;;;9.38;67.47
7200;BME280;3641;49.082;8.200;2023-03-18T03:34:38;99921.91;;;9.40;67.18
7200;BME280;3641;49.082;8.200;2023-03-18T03:37:07;99919.19;;;9.40;67.46
7200;BME280;3641;49.082;8.200;2023-03-18T03:39:33;99914.09;;;9.37;65.56
7200;BME280;3641;49.082;8.200;2023-03-18T03:42:00;99919.75;;;9.36;65.77
7200;BME280;3641;49.082;8.200;2023-03-18T03:44:26;99916.38;;;9.34;64.61
7200;BME280;3641;49.082;8.200;2023-03-18T03:46:53;99931.97;;;9.40;66.11
7200;BME280;3641;49.082;8.200;2023-03-18T03:49:20;99934.19;;;9.36;65.36
7200;BME280;3641;49.082;8.200;2023-03-18T03:51:47;99937.78;;;9.37;67.53
7200;BME280;3641;49.082;8.200;2023-03-18T03:54:14;99938.81;;;9.36;68.17
7200;BME280;3641;49.082;8.200;2023-03-18T03:56:41;99943.25;;;9.37;67.94
7200;BME280;3641;49.082;8.200;2023-03-18T03:59:08;99944.91;;;9.38;67.95
7200;BME280;3641;49.082;8.200;2023-03-18T04:01:35;99943.44;;;9.35;68.50
7200;BME280;3641;49.082;8.200;2023-03-18T04:04:02;99943.59;;;9.34;68.01
7200;BME280;3641;49.082;8.200;2023-03-18T04:06:29;99939.38;;;9.31;67.82
7200;BME280;3641;49.082;8.200;2023-03-18T04:08:56;99930.81;;;9.34;67.74
7200;BME280;3641;49.082;8.200;2023-03-18T04:11:24;99933.56;;;9.34;68.42
7200;BME280;3641;49.082;8.200;2023-03-18T04:13:50;99940.88;;;9.34;68.08
7200;BME280;3641;49.082;8.200;2023-03-18T04:16:17;99935.63;;;9.32;68.23
7200;BME280;3641;49.082;8.200;2023-03-18T04:18:43;99932.91;;;9.32;68.30
7200;BME280;3641;49.082;8.200;2023-03-18T04:21:11;99929.91;;;9.27;67.54
7200;BME280;3641;49.082;8.200;2023-03-18T04:23:37;99928.00;;;9.27;66.84
7200;BME280;3641;49.082;8.200;2023-03-18T04:26:04;99928.84;;;9.28;67.74
7200;BME280;3641;49.082;8.200;2023-03-18T04:28:32;99931.75;;;9.26;66.71
7200;BME280;3641;49.082;8.200;2023-03-18T04:30:59;99939.38;;;9.31;67.56
7200;BME280;3641;49.082;8.200;2023-03-18T04:33:25;99936.84;;;9.30;67.32
7200;BME280;3641;49.082;8.200;2023-03-18T04:35:52;99930.56;;;9.29;68.07
7200;BME280;3641;49.082;8.200;2023-03-18T04:38:18;99939.94;;;9.26;68.16
7200;BME280;3641;49.082;8.200;2023-03-18T04:40:45;99940.78;;;9.27;67.51
7200;BME280;3641;49.082;8.200;2023-03-18T04:43:12;99938.31;;;9.17;66.52
7200;BME280;3641;49.082;8.200;2023-03-18T04:45:40;99946.13;;;9.20;66.29
7200;BME280;3641;49.082;8.200;2023-03-18T04:48:06;99948.78;;;9.29;67.77
7200;BME280;3641;49.082;8.200;2023-03-18T04:50:32;99944.53;;;9.26;68.18
7200;BME280;3641;49.082;8.200;2023-03-18T04:52:59;99950.53;;;9.21;67.08
7200;BME280;3641;49.082;8.200;2023-03-18T04:55:25;99949.34;;;9.24;68.78
7200;BME280;3641;49.082;8.200;2023-03-18T04:57:52;99948.28;;;9.25;69.24
7200;BME280;3641;49.082;8.200;2023-03-18T05:00:19;99947.06;;;9.13;66.47
7200;BME280;3641;49.082;8.200;2023-03-18T05:02:48;99953.16;;;9.15;68.74
7200;BME280;3641;49.082;8.200;2023-03-18T05:05:15;99950.72;;;9.20;68.58
7200;BME280;3641;49.082;8.200;2023-03-18T05:07:42;99946.81;;;9.22;68.62
7200;BME280;3641;49.082;8.200;2023-03-18T05:10:10;99942.56;;;9.20;69.06
7200;BME280;3641;49.082;8.200;2023-03-18T05:12:36;99945.19;;;9.13;68.29
7200;BME280;3641;49.082;8.200;2023-03-18T05:15:03;99944.13;;;9.14;68.96
7200;BME280;3641;49.082;8.200;2023-03-18T05:17:30;99947.16;;;9.19;68.88
7200;BME280;3641;49.082;8.200;2023-03-18T05:19:58;99947.34;;;9.18;69.45
7200;BME280;3641;49.082;8.200;2023-03-18T05:22:24;99956.91;;;9.14;69.25
7200;BME280;3641;49.082;8.200;2023-03-18T05:24:51;99954.00;;;9.15;69.24
7200;BME280;3641;49.082;8.200;2023-03-18T05:27:18;99957.09;;;9.12;68.96
7200;BME280;3641;49.082;8.200;2023-03-18T05:29:45;99954.56;;;9.11;69.55
7200;BME280;3641;49.082;8.200;2023-03-18T05:32:13;99953.81;;;9.17;68.72
7200;BME280;3641;49.082;8.200;2023-03-18T05:34:41;99964.25;;;9.13;68.82
7200;BME280;3641;49.082;8.200;2023-03-18T05:37:11;99970.44;;;9.07;69.24
7200;BME280;3641;49.082;8.200;2023-03-18T05:39:39;99965.28;;;9.12;69.12
7200;BME280;3641;49.082;8.200;2023-03-18T05:42:06;99967.34;;;9.10;69.37
7200;BME280;3641;49.082;8.200;2023-03-18T05:44:32;99973.44;;;9.12;69.52
7200;BME280;3641;49.082;8.200;2023-03-18T05:47:00;99973.16;;;9.07;69.92
7200;BME280;3641;49.082;8.200;2023-03-18T05:49:26;99968.91;;;9.04;69.89
7200;BME280;3641;49.082;8.200;2023-03-18T05:51:53;99960.38;;;9.07;69.21
7200;BME280;3641;49.082;8.200;2023-03-18T05:54:21;99960.75;;;9.04;69.78
7200;BME280;3641;49.082;8.200;2023-03-18T05:56:48;99970.78;;;9.04;69.46
7200;BME280;3641;49.082;8.200;2023-03-18T05:59:16;99963.78;;;9.09;69.06
7200;BME280;3641;49.082;8.200;2023-03-18T06:01:43;99973.34;;;9.05;69.20
7200;BME280;3641;49.082;8.200;2023-03-18T06:04:10;99971.34;;;8.99;69.67
7200;BME280;3641;49.082;8.200;2023-03-18T06:06:37;99974.53;;;9.03;69.81
7200;BME280;3641;49.082;8.200;2023-03-18T06:09:04;99981.03;;;9.02;69.48
7200;BME280;3641;49.082;8.200;2023-03-18T06:11:32;99979.81;;;9.04;69.71
7200;BME280;3641;49.082;8.200;2023-03-18T06:13:59;99982.41;;;8.98;69.12
7200;BME280;3641;49.082;8.200;2023-03-18T06:16:26;99985.59;;;9.01;69.66
7200;BME280;3641;49.082;8.200;2023-03-18T06:18:53;99991.44;;;8.98;69.77
7200;BME280;3641;49.082;8.200;2023-03-18T06:21:20;99990.78;;;8.96;70.12
7200;BME280;3641;49.082;8.200;2023-03-18T06:23:46;99985.97;;;8.98;69.72
7200;BME280;3641;49.082;8.200;2023-03-18T06:26:13;99989.56;;;8.99;69.99
7200;BME280;3641;49.082;8.200;2023-03-18T06:28:42;99982.59;;;8.96;69.90
7200;BME280;3641;49.082;8.200;2023-03-18T06:31:11;99986.84;;;8.99;69.55
7200;BME280;3641;49.082;8.200;2023-03-18T06:33:38;99989.56;;;8.99;69.93
7200;BME280;3641;49.082;8.200;2023-03-18T06:36:11;99987.03;;;8.97;69.60
7200;BME280;3641;49.082;8.200;2023-03-18T06:38:42;99996.41;;;8.95;69.91
7200;BME280;3641;49.082;8.200;2023-03-18T06:41:09;99993.84;;;8.93;69.97
7200;BME280;3641;49.082;8.200;2023-03-18T06:43:35;99998.47;;;8.93;70.09
7200;BME280;3641;49.082;8.200;2023-03-18T06:46:04;99993.84;;;8.93;70.33
7200;BME280;3641;49.082;8.200;2023-03-18T06:48:30;99999.84;;;8.88;70.02
7200;BME280;3641;49.082;8.200;2023-03-18T06:50:58;99998.84;;;8.89;69.79
7200;BME280;3641;49.082;8.200;2023-03-18T06:53:24;99999.66;;;8.90;70.44
7200;BME280;3641;49.082;8.200;2023-03-18T06:55:51;99997.25;;;8.95;70.16
7200;BME280;3641;49.082;8.200;2023-03-18T06:58:18;100005.97;;;8.90;70.10
7200;BME280;3641;49.082;8.200;2023-03-18T07:00:44;100007.66;;;8.91;70.54
7200;BME280;3641;49.082;8.200;2023-03-18T07:03:13;100012.72;;;8.95;69.98
7200;BME280;3641;49.082;8.200;2023-03-18T07:05:40;100007.09;;;8.96;70.62
7200;BME280;3641;49.082;8.200;2023-03-18T07:08:06;100005.91;;;8.99;69.79
7200;BME280;3641;49.082;8.200;2023-03-18T07:10:33;100008.06;;;9.03;69.89
7200;BME280;3641;49.082;8.200;2023-03-18T07:13:00;100000.75;;;9.04;69.14
7200;BME280;3641;49.082;8.200;2023-03-18T07:15:26;100007.34;;;9.09;68.83
7200;BME280;3641;49.082;8.200;2023-03-18T07:17:53;100006.47;;;9.09;68.96
7200;BME280;3641;49.082;8.200;2023-03-18T07:20:21;100017.88;;;9.13;67.60
7200;BME280;3641;49.082;8.200;2023-03-18T07:22:48;100013.00;;;9.23;67.63
7200;BME280;3641;49.082;8.200;2023-03-18T07:25:15;100003.34;;;9.35;66.16
7200;BME280;3641;49.082;8.200;2023-03-18T07:27:42;100013.38;;;9.35;66.79
7200;BME280;3641;49.082;8.200;2023-03-18T07:30:10;100011.44;;;9.43;64.18
7200;BME280;3641;49.082;8.200;2023-03-18T07:32:37;100016.72;;;9.75;61.93
7200;BME280;3641;49.082;8.200;2023-03-18T07:35:05;100012.03;;;9.69;62.39
7200;BME280;3641;49.082;8.200;2023-03-18T07:37:33;100017.94;;;9.72;62.24
7200;BME280;3641;49.082;8.200;2023-03-18T07:40:00;100022.88;;;10.13;58.17
7200;BME280;3641;49.082;8.200;2023-03-18T07:42:26;100012.81;;;10.14;59.18
7200;BME280;3641;49.082;8.200;2023-03-18T07:44:53;100018.00;;;10.09;58.37
7200;BME280;3641;49.082;8.200;2023-03-18T07:47:19;100029.06;;;10.22;58.52
7200;BME280;3641;49.082;8.200;2023-03-18T07:49:50;100021.34;;;10.26;58.15
7200;BME280;3641;49.082;8.200;2023-03-18T07:52:17;100024.91;;;10.41;57.66
7200;BME280;3641;49.082;8.200;2023-03-18T07:54:48;100020.16;;;10.65;54.53
7200;BME280;3641;49.082;8.200;2023-03-18T07:57:15;100026.69;;;10.70;54.91
7200;BME280;3641;49.082;8.200;2023-03-18T07:59:45;100022.19;;;11.27;52.70
7200;BME280;3641;49.082;8.200;2023-03-18T08:02:21;100020.03;;;10.95;54.60
7200;BME280;3641;49.082;8.200;2023-03-18T08:04:56;100023.19;;;10.98;53.56
7200;BME280;3641;49.082;8.200;2023-03-18T08:07:25;100037.97;;;10.82;54.79
7200;BME280;3641;49.082;8.200;2023-03-18T08:09:53;100034.97;;;10.99;54.44
7200;BME280;3641;49.082;8.200;2023-03-18T08:12:19;100035.69;;;10.86;54.25
7200;BME280;3641;49.082;8.200;2023-03-18T08:14:46;100042.75;;;11.02;53.61
7200;BME280;3641;49.082;8.200;2023-03-18T08:17:13;100041.53;;;11.04;55.35
7200;BME280;3641;49.082;8.200;2023-03-18T08:19:40;100044.06;;;11.06;53.34
7200;BME280;3641;49.082;8.200;2023-03-18T08:22:07;100047.13;;;11.18;53.55
7200;BME280;3641;49.082;8.200;2023-03-18T08:24:34;100047.16;;;11.24;54.27
7200;BME280;3641;49.082;8.200;2023-03-18T08:27:04;100044.97;;;11.13;55.38
7200;BME280;3641;49.082;8.200;2023-03-18T08:29:31;100038.91;;;11.18;54.49
7200;BME280;3641;49.082;8.200;2023-03-18T08:31:57;100041.81;;;11.38;53.35
7200;BME280;3641;49.082;8.200;2023-03-18T08:34:24;100046.34;;;11.52;53.44
7200;BME280;3641;49.082;8.200;2023-03-18T08:36:51;100046.22;;;11.67;50.96
7200;BME280;3641;49.082;8.200;2023-03-18T08:39:17;100045.13;;;11.61;52.98
7200;BME280;3641;49.082;8.200;2023-03-18T08:41:45;100041.72;;;11.53;52.07
7200;BME280;3641;49.082;8.200;2023-03-18T08:44:14;100047.47;;;11.64;51.32
7200;BME280;3641;49.082;8.200;2023-03-18T08:46:40;100043.09;;;11.70;53.49
7200;BME280;3641;49.082;8.200;2023-03-18T08:49:07;100046.28;;;11.74;51.94
7200;BME280;3641;49.082;8.200;2023-03-18T08:51:34;100043.09;;;11.70;52.23
7200;BME280;3641;49.082;8.200;2023-03-18T08:54:01;100045.13;;;11.61;53.88
7200;BME280;3641;49.082;8.200;2023-03-18T08:56:27;100035.50;;;11.66;52.50
7200;BME280;3641;49.082;8.200;2023-03-18T08:58:54;100037.38;;;11.65;52.14
7200;BME280;3641;49.082;8.200;2023-03-18T09:01:22;100037.00;;;11.68;52.35
7200;BME280;3641;49.082;8.200;2023-03-18T09:03:51;100038.63;;;11.62;54.71
7200;BME280;3641;49.082;8.200;2023-03-18T09:06:20;100033.25;;;11.76;51.88
7200;BME280;3641;49.082;8.200;2023-03-18T09:08:47;100027.69;;;11.62;53.75
7200;BME280;3641;49.082;8.200;2023-03-18T09:11:14;100022.31;;;12.11;50.40
7200;BME280;3641;49.082;8.200;2023-03-18T09:13:42;100022.25;;;11.97;51.68
7200;BME280;3641;49.082;8.200;2023-03-18T09:16:08;100018.34;;;11.85;53.63
7200;BME280;3641;49.082;8.200;2023-03-18T09:18:36;100013.41;;;11.95;52.24
7200;BME280;3641;49.082;8.200;2023-03-18T09:21:04;100010.28;;;12.05;53.40
7200;BME280;3641;49.082;8.200;2023-03-18T09:23:31;100009.88;;;12.08;54.10
7200;BME280;3641;49.082;8.200;2023-03-18T09:25:59;100004.03;;;12.18;53.48
7200;BME280;3641;49.082;8.200;2023-03-18T09:28:30;100008.28;;;12.27;53.49
7200;BME280;3641;49.082;8.200;2023-03-18T09:30:57;100010.22;;;12.47;52.42
7200;BME280;3641;49.082;8.200;2023-03-18T09:33:23;100006.00;;;12.38;54.09
7200;BME280;3641;49.082;8.200;2023-03-18T09:35:57;99999.50;;;12.52;53.37
7200;BME280;3641;49.082;8.200;2023-03-18T09:38:26;99991.69;;;12.49;51.99
7200;BME280;3641;49.082;8.200;2023-03-18T09:41:03;99987.94;;;12.63;49.46
7200;BME280;3641;49.082;8.200;2023-03-18T09:43:48;99998.88;;;12.57;51.34
7200;BME280;3641;49.082;8.200;2023-03-18T09:46:27;99997.22;;;12.69;50.68
7200;BME280;3641;49.082;8.200;2023-03-18T09:49:18;99998.50;;;12.73;53.01
7200;BME280;3641;49.082;8.200;2023-03-18T09:51:56;99989.22;;;12.81;53.03
7200;BME280;3641;49.082;8.200;2023-03-18T09:54:32;99997.25;;;13.16;49.06
7200;BME280;3641;49.082;8.200;2023-03-18T09:57:01;99987.13;;;13.09;49.64
7200;BME280;3641;49.082;8.200;2023-03-18T09:59:36;99984.41;;;13.23;49.39
7200;BME280;3641;49.082;8.200;2023-03-18T10:02:07;99988.19;;;13.29;46.77
7200;BME280;3641;49.082;8.200;2023-03-18T10:04:43;99973.44;;;13.43;46.21
7200;BME280;3641;49.082;8.200;2023-03-18T10:07:17;99980.38;;;13.72;45.35
7200;BME280;3641;49.082;8.200;2023-03-18T10:09:47;99979.47;;;13.85;45.18
7200;BME280;3641;49.082;8.200;2023-03-18T10:12:25;99989.00;;;13.76;46.04
7200;BME280;3641;49.082;8.200;2023-03-18T10:14:59;99989.53;;;14.05;43.73
7200;BME280;3641;49.082;8.200;2023-03-18T10:17:30;99994.06;;;13.79;46.26
7200;BME280;3641;49.082;8.200;2023-03-18T10:19:59;99991.78;;;13.56;47.53
7200;BME280;3641;49.082;8.200;2023-03-18T10:22:48;100006.72;;;13.73;46.06
7200;BME280;3641;49.082;8.200;2023-03-18T10:25:24;99999.09;;;13.89;45.05
7200;BME280;3641;49.082;8.200;2023-03-18T10:28:01;99997.78;;;13.98;44.22
7200;BME280;3641;49.082;8.200;2023-03-18T10:30:50;99992.50;;;14.03;45.73
7200;BME280;3641;49.082;8.200;2023-03-18T10:33:23;99991.38;;;14.17;46.37
7200;BME280;3641;49.082;8.200;2023-03-18T10:36:02;99993.50;;;14.15;48.63
7200;BME280;3641;49.082;8.200;2023-03-18T10:38:34;99995.22;;;14.48;45.58
7200;BME280;3641;49.082;8.200;2023-03-18T10:41:12;99989.34;;;14.45;48.03
7200;BME280;3641;49.082;8.200;2023-03-18T10:43:39;99995.66;;;14.91;42.53
7200;BME280;3641;49.082;8.200;2023-03-18T10:46:10;99992.19;;;15.02;44.65
7200;BME280;3641;49.082;8.200;2023-03-18T10:48:41;99994.88;;;15.34;42.38
7200;BME280;3641;49.082;8.200;2023-03-18T10:51:15;99992.59;;;15.49;42.35
7200;BME280;3641;49.082;8.200;2023-03-18T10:53:50;99990.59;;;15.38;43.35
7200;BME280;3641;49.082;8.200;2023-03-18T10:56:20;99989.22;;;15.47;42.49
7200;BME280;3641;49.082;8.200;2023-03-18T10:58:46;99993.97;;;15.40;42.27
7200;BME280;3641;49.082;8.200;2023-03-18T11:01:15;99996.09;;;15.38;47.13
7200;BME280;3641;49.082;8.200;2023-03-18T11:03:46;99992.06;;;15.40;46.00
7200;BME280;3641;49.082;8.200;2023-03-18T11:06:16;99984.84;;;15.39;47.82
7200;BME280;3641;49.082;8.200;2023-03-18T11:08:47;99978.75;;;15.37;49.18
7200;BME280;3641;49.082;8.200;2023-03-18T11:11:26;99980.66;;;15.37;47.62
7200;BME280;3641;49.082;8.200;2023-03-18T11:13:55;99969.44;;;16.01;43.62
7200;BME280;3641;49.082;8.200;2023-03-18T11:16:26;99972.41;;;15.80;45.18
7200;BME280;3641;49.082;8.200;2023-03-18T11:18:55;99967.63;;;15.69;47.24
7200;BME280;3641;49.082;8.200;2023-03-18T11:21:23;99974.41;;;15.67;48.43
7200;BME280;3641;49.082;8.200;2023-03-18T11:23:57;99973.63;;;15.85;45.14
7200;BME280;3641;49.082;8.200;2023-03-18T11:26:51;99966.75;;;15.94;47.87
7200;BME280;3641;49.082;8.200;2023-03-18T11:29:21;99963.38;;;15.92;46.80
7200;BME280;3641;49.082;8.200;2023-03-18T11:31:51;99957.44;;;15.76;47.93
7200;BME280;3641;49.082;8.200;2023-03-18T11:34:19;99963.41;;;15.67;46.70
7200;BME280;3641;49.082;8.200;2023-03-18T11:36:52;99956.97;;;15.79;43.61
7200;BME280;3641;49.082;8.200;2023-03-18T11:39:21;99970.88;;;16.03;43.25
7200;BME280;3641;49.082;8.200;2023-03-18T11:41:49;99968.75;;;16.05;41.80
7200;BME280;3641;49.082;8.200;2023-03-18T11:44:18;99969.38;;;16.19;40.53
7200;BME280;3641;49.082;8.200;2023-03-18T11:46:49;99969.19;;;16.02;43.33
7200;BME280;3641;49.082;8.200;2023-03-18T11:49:20;99969.69;;;16.29;42.41
7200;BME280;3641;49.082;8.200;2023-03-18T11:51:53;99959.97;;;16.27;43.11
7200;BME280;3641;49.082;8.200;2023-03-18T11:54:50;99951.41;;;15.86;44.23
7200;BME280;3641;49.082;8.200;2023-03-18T11:57:29;99956.41;;;16.08;42.50
7200;BME280;3641;49.082;8.200;2023-03-18T12:00:17;99951.22;;;15.81;41.81
7200;BME280;3641;49.082;8.200;2023-03-18T12:03:02;99940.03;;;15.76;41.77
7200;BME280;3641;49.082;8.200;2023-03-18T12:05:56;99940.34;;;15.68;41.50
7200;BME280;3641;49.082;8.200;2023-03-18T12:08:42;99946.06;;;15.66;41.34
7200;BME280;3641;49.082;8.200;2023-03-18T12:11:16;99944.47;;;15.58;44.29
7200;BME280;3641;49.082;8.200;2023-03-18T12:13:53;99945.59;;;15.51;41.55
7200;BME280;3641;49.082;8.200;2023-03-18T12:16:38;99947.50;;;15.50;46.00
7200;BME280;3641;49.082;8.200;2023-03-18T12:19:30;99939.72;;;15.47;44.22
7200;BME280;3641;49.082;8.200;2023-03-18T12:22:22;99936.72;;;15.30;47.89
7200;BME280;3641;49.082;8.200;2023-03-18T12:25:04;99937.94;;;15.34;47.87
7200;BME280;3641;49.082;8.200;2023-03-18T12:27:40;99937.03;;;15.40;46.75
7200;BME280;3641;49.082;8.200;2023-03-18T12:30:19;99933.88;;;15.62;43.76
7200;BME280;3641;49.082;8.200;2023-03-18T12:32:53;99932.47;;;15.53;45.82
7200;BME280;3641;49.082;8.200;2023-03-18T12:35:36;99928.50;;;15.67;42.12
7200;BME280;3641;49.082;8.200;2023-03-18T12:38:23;99924.75;;;15.61;43.98
7200;BME280;3641;49.082;8.200;2023-03-18T12:40:57;99923.28;;;15.40;45.70
7200;BME280;3641;49.082;8.200;2023-03-18T12:43:50;99929.84;;;15.39;47.22
7200;BME280;3641;49.082;8.200;2023-03-18T12:46:24;99927.66;;;15.48;43.16
7200;BME280;3641;49.082;8.200;2023-03-18T12:48:56;99927.50;;;15.61;45.24
7200;BME280;3641;49.082;8.200;2023-03-18T12:51:28;99918.09;;;15.69;44.44
7200;BME280;3641;49.082;8.200;2023-03-18T12:54:07;99918.13;;;15.88;44.91
7200;BME280;3641;49.082;8.200;2023-03-18T12:56:41;99923.25;;;15.84;44.95
7200;BME280;3641;49.082;8.200;2023-03-18T12:59:14;99917.41;;;16.11;42.22
7200;BME280;3641;49.082;8.200;2023-03-18T13:01:48;99914.19;;;15.95;42.50
7200;BME280;3641;49.082;8.200;2023-03-18T13:04:20;99921.03;;;15.93;45.10
7200;BME280;3641;49.082;8.200;2023-03-18T13:06:53;99916.69;;;16.15;41.10
7200;BME280;3641;49.082;8.200;2023-03-18T13:09:26;99904.06;;;16.26;43.29
7200;BME280;3641;49.082;8.200;2023-03-18T13:12:03;99900.50;;;16.07;41.28
7200;BME280;3641;49.082;8.200;2023-03-18T13:14:42;99894.91;;;16.14;42.20
7200;BME280;3641;49.082;8.200;2023-03-18T13:17:12;99894.16;;;16.37;44.25
7200;BME280;3641;49.082;8.200;2023-03-18T13:19:41;99885.63;;;16.27;41.78
7200;BME280;3641;49.082;8.200;2023-03-18T13:22:21;99891.88;;;16.34;41.46
7200;BME280;3641;49.082;8.200;2023-03-18T13:25:01;99892.72;;;16.34;42.39
7200;BME280;3641;49.082;8.200;2023-03-18T13:27:43;99893.78;;;16.33;42.61
7200;BME280;3641;49.082;8.200;2023-03-18T13:30:22;99905.97;;;16.56;41.47
7200;BME280;3641;49.082;8.200;2023-03-18T13:33:20;99886.09;;;16.66;38.21
7200;BME280;3641;49.082;8.200;2023-03-18T13:36:07;99891.13;;;16.81;36.83
7200;BME280;3641;49.082;8.200;2023-03-18T13:39:05;99893.09;;;16.92;37.64
7200;BME280;3641;49.082;8.200;2023-03-18T13:42:03;99891.72;;;16.71;36.72